Time;durP1;ratioP1;P1;durP2;ratioP2;P2;SDS_P1;SDS_P2;PMS_P1;PMS_P2;Temp;Humidity;BMP_temperature;BMP_pressure;BME280_temperature;BME280_humidity;BME280_pressure;Samples;Min_cycle;Max_cycle;Signal;HPM_P1;HPM_P2
2021/11/24 00:01:34;;;;;;;24.80;16.10;;;;;;;-142.75;100.00;78740.13;5004373;28;20458;-68
2021/11/24 00:03:59;;;;;;;26.25;17.40;;;;;;;-142.75;100.00;78740.13;5005098;28;20261;-67
2021/11/24 00:06:25;;;;;;;60.38;26.80;;;;;;;-142.75;100.00;78726.34;4997714;28;20365;-68
2021/11/24 00:08:50;;;;;;;45.28;21.23;;;;;;;-142.75;100.00;78722.41;4986802;28;20040;-68
2021/11/24 00:11:16;;;;;;;67.33;31.60;;;;;;;-142.75;100.00;78716.50;4986238;28;20480;-68
2021/11/24 00:13:41;;;;;;;16.92;9.60;;;;;;;-142.75;100.00;78726.34;4986845;28;20305;-68
2021/11/24 00:16:07;;;;;;;17.48;11.48;;;;;;;-142.75;100.00;78726.34;4988560;28;20026;-68
2021/11/24 00:18:33;;;;;;;23.23;12.50;;;;;;;-142.75;100.00;78728.31;4990253;28;20026;-67
2021/11/24 00:20:58;;;;;;;15.48;11.18;;;;;;;-142.75;100.00;78728.31;4989357;28;20035;-65
2021/11/24 00:23:24;;;;;;;17.90;10.18;;;;;;;-142.75;100.00;78730.28;4990114;28;20430;-65
2021/11/24 00:25:49;;;;;;;21.33;13.45;;;;;;;-142.75;100.00;78730.28;4990194;28;20022;-66
2021/11/24 00:28:14;;;;;;;22.77;14.82;;;;;;;-142.75;100.00;78714.53;4990080;28;20037;-66
2021/11/24 00:30:39;;;;;;;18.02;13.57;;;;;;;-142.75;100.00;78714.53;4989126;28;20034;-66
2021/11/24 00:33:05;;;;;;;16.20;9.43;;;;;;;-142.75;100.00;78728.31;4989896;28;20386;-66
2021/11/24 00:35:30;;;;;;;17.17;9.57;;;;;;;-142.75;100.00;78732.25;4989933;28;20030;-66
2021/11/24 00:37:55;;;;;;;15.82;8.52;;;;;;;-142.75;100.00;78730.28;4989809;28;20049;-68
2021/11/24 00:40:21;;;;;;;16.67;9.70;;;;;;;-142.75;100.00;78722.41;4989089;28;20491;-67
2021/11/24 00:42:46;;;;;;;21.73;12.57;;;;;;;-142.75;100.00;78700.75;4990309;28;20084;-67
2021/11/24 00:45:13;;;;;;;17.73;13.30;;;;;;;-142.75;100.00;78696.81;4989639;28;20050;-67
2021/11/24 00:47:38;;;;;;;20.30;13.68;;;;;;;-142.75;100.00;78704.69;4989691;28;20388;-68
2021/11/24 00:50:05;;;;;;;17.48;11.98;;;;;;;-142.75;100.00;78712.56;4988832;28;20029;-68
2021/11/24 00:52:31;;;;;;;14.83;10.67;;;;;;;-142.75;100.00;78736.19;4989651;28;20053;-68
2021/11/24 00:54:58;;;;;;;18.52;11.50;;;;;;;-142.75;100.00;78728.31;4989602;28;20060;-67
2021/11/24 00:57:23;;;;;;;18.17;13.10;;;;;;;-142.75;100.00;78736.19;4989534;28;20026;-67
2021/11/24 00:59:49;;;;;;;16.50;11.95;;;;;;;-142.75;100.00;78732.25;4988794;28;20388;-67
2021/11/24 01:02:14;;;;;;;18.33;12.10;;;;;;;-142.75;100.00;78724.38;4989794;28;20030;-68
2021/11/24 01:04:40;;;;;;;18.80;13.93;;;;;;;-142.75;100.00;78716.50;4989504;28;20303;-68
2021/11/24 01:07:05;;;;;;;17.00;12.32;;;;;;;-142.75;100.00;78696.81;4989504;28;20022;-68
2021/11/24 01:09:30;;;;;;;19.52;12.93;;;;;;;-142.75;100.00;78692.88;4989231;28;20026;-68
2021/11/24 01:11:56;;;;;;;17.73;12.63;;;;;;;-142.75;100.00;78700.75;4988728;28;20483;-68
2021/11/24 01:14:21;;;;;;;17.57;12.17;;;;;;;-142.75;100.00;78704.69;4989306;28;20288;-68
2021/11/24 01:16:46;;;;;;;17.20;12.43;;;;;;;-142.75;100.00;78690.91;4989574;28;20352;-68
2021/11/24 01:19:12;;;;;;;22.40;13.57;;;;;;;-142.75;100.00;78681.06;4989526;28;20038;-68
2021/11/24 01:21:37;;;;;;;19.83;12.32;;;;;;;-142.75;100.00;78694.84;4988516;28;20326;-68
2021/11/24 01:24:03;;;;;;;14.48;10.60;;;;;;;-142.75;100.00;78698.78;4987947;28;20083;-68
2021/11/24 01:26:28;;;;;;;17.73;12.35;;;;;;;-142.75;100.00;78696.81;4986872;28;20022;-68
2021/11/24 01:28:54;;;;;;;17.05;12.73;;;;;;;-142.75;100.00;78712.56;4988838;28;20033;-68
2021/11/24 01:31:19;;;;;;;17.40;11.90;;;;;;;-142.75;100.00;78698.78;4988276;28;20038;-68
2021/11/24 01:33:45;;;;;;;20.33;13.00;;;;;;;-142.75;100.00;78690.91;4989450;28;20026;-68
2021/11/24 01:36:10;;;;;;;16.80;12.30;;;;;;;-142.75;100.00;78679.09;4989065;28;20026;-68
2021/11/24 01:38:35;;;;;;;22.20;13.60;;;;;;;-142.75;100.00;78679.09;4988849;28;20602;-68
2021/11/24 01:41:01;;;;;;;19.90;13.70;;;;;;;-142.75;100.00;78692.88;4988212;28;20451;-67
2021/11/24 01:43:26;;;;;;;18.10;12.55;;;;;;;-142.75;100.00;78708.63;4988795;28;20109;-68
2021/11/24 01:45:51;;;;;;;18.23;12.70;;;;;;;-142.75;100.00;78706.66;4987584;28;20037;-68
2021/11/24 01:48:17;;;;;;;23.52;13.57;;;;;;;-142.75;100.00;78714.53;4989076;28;20324;-68
2021/11/24 01:50:42;;;;;;;27.73;14.23;;;;;;;-142.75;100.00;78712.56;4987945;28;20030;-68
2021/11/24 01:53:07;;;;;;;16.37;12.37;;;;;;;-142.75;100.00;78696.81;4988893;28;20646;-68
2021/11/24 01:55:33;;;;;;;21.40;13.07;;;;;;;-142.75;100.00;78700.75;4987448;28;20281;-67
2021/11/24 01:58:00;;;;;;;19.90;12.57;;;;;;;-142.75;100.00;78708.63;4987502;28;20041;-67
2021/11/24 02:00:29;;;;;;;18.13;13.57;;;;;;;-142.75;100.00;78704.69;4987769;28;20079;-68
2021/11/24 02:02:54;;;;;;;20.50;13.10;;;;;;;-142.75;100.00;78688.94;4987441;28;20392;-67
2021/11/24 02:05:21;;;;;;;18.95;13.25;;;;;;;-142.75;100.00;78669.25;4988570;28;20033;-68
2021/11/24 02:07:46;;;;;;;19.80;13.13;;;;;;;-142.75;100.00;78677.13;4987416;28;20034;-68
2021/11/24 02:10:12;;;;;;;16.42;12.10;;;;;;;-142.75;100.00;78681.06;4986407;28;20057;-68
2021/11/24 02:12:38;;;;;;;19.33;13.13;;;;;;;-142.75;100.00;78661.34;4988361;28;20022;-68
2021/11/24 02:15:05;;;;;;;19.23;12.95;;;;;;;-142.75;100.00;78677.13;4988448;28;20037;-67
2021/11/24 02:17:30;;;;;;;20.63;14.67;;;;;;;-142.75;100.00;78669.25;4988288;28;20045;-68
2021/11/24 02:19:56;;;;;;;21.65;13.02;;;;;;;-142.75;100.00;78685.00;4987507;28;20022;-67
2021/11/24 02:22:21;;;;;;;18.02;13.27;;;;;;;-142.75;100.00;78659.38;4988284;28;20118;-65
2021/11/24 02:24:46;;;;;;;18.85;12.77;;;;;;;-142.75;100.00;78649.53;4988587;28;20022;-66
2021/11/24 02:27:13;;;;;;;23.83;14.48;;;;;;;-142.75;100.00;78663.31;4988155;28;20028;-66
2021/11/24 02:29:40;;;;;;;21.70;14.47;;;;;;;-142.75;100.00;78655.44;4987425;28;20227;-66
2021/11/24 02:32:06;;;;;;;22.33;14.00;;;;;;;-142.75;100.00;78641.66;4996203;28;20026;-65
2021/11/24 02:34:33;;;;;;;20.23;13.93;;;;;;;-142.75;100.00;78637.72;4988107;28;20455;-65
2021/11/24 02:36:58;;;;;;;;;;;;;;;-142.75;100.00;78633.78;4988331;28;20026;-66
2021/11/24 02:39:24;;;;;;;19.40;13.77;;;;;;;-142.75;100.00;78618.03;4987961;28;20004;-65
2021/11/24 02:41:49;;;;;;;20.23;13.50;;;;;;;-142.75;100.00;78598.34;4987449;28;20529;-66
2021/11/24 02:44:28;;;;;;;18.33;13.27;;;;;;;-142.75;100.00;78588.50;4999383;28;20030;-66
2021/11/24 02:46:56;;;;;;;20.33;13.85;;;;;;;-142.75;100.00;78576.66;4992744;28;20031;-65
2021/11/24 02:49:21;;;;;;;22.07;13.83;;;;;;;-142.75;100.00;78574.69;4985402;28;20054;-65
2021/11/24 02:51:47;;;;;;;25.35;13.27;;;;;;;-142.75;100.00;78574.69;4987423;28;20113;-65
2021/11/24 02:54:14;;;;;;;20.73;12.98;;;;;;;-142.75;100.00;78586.53;4987833;28;20407;-65
2021/11/24 02:56:40;;;;;;;18.65;13.93;;;;;;;-142.75;100.00;78586.53;4991999;28;20328;-65
2021/11/24 02:59:08;;;;;;;20.67;13.63;;;;;;;-142.75;100.00;78598.34;5006043;28;20052;-65
2021/11/24 03:01:33;;;;;;;23.33;14.13;;;;;;;-142.75;100.00;78614.09;5006427;28;20101;-65
2021/11/24 03:03:58;;;;;;;23.97;14.87;;;;;;;-142.75;100.00;78618.03;5007137;28;20101;-65
2021/11/24 03:06:24;;;;;;;21.02;14.70;;;;;;;-142.75;100.00;78629.84;5005808;28;20711;-65
2021/11/24 03:08:49;;;;;;;21.10;15.73;;;;;;;-142.75;100.00;78618.03;5007051;28;20483;-66
2021/11/24 03:11:15;;;;;;;24.27;14.93;;;;;;;-142.75;100.00;78629.84;5005198;28;20120;-66
2021/11/24 03:13:40;;;;;;;23.70;16.58;;;;;;;-142.75;100.00;78620.00;4986146;28;20747;-66
2021/11/24 03:16:05;;;;;;;24.03;15.27;;;;;;;-142.75;100.00;78618.03;4987453;28;20165;-65
2021/11/24 03:18:30;;;;;;;23.80;16.87;;;;;;;-142.75;100.00;78621.97;4987259;28;20281;-65
2021/11/24 03:20:56;;;;;;;26.23;16.50;;;;;;;-142.75;100.00;78618.03;4986606;28;20288;-65
2021/11/24 03:23:21;;;;;;;27.83;17.40;;;;;;;-142.75;100.00;78598.34;4987324;28;20030;-64
2021/11/24 03:25:46;;;;;;;26.10;18.27;;;;;;;-142.75;100.00;78582.59;4987532;28;20018;-65
2021/11/24 03:28:12;;;;;;;23.90;16.30;;;;;;;-142.75;100.00;78574.69;5016587;22;20647;-68
2021/11/24 03:30:38;;;;;;;23.98;16.42;;;;;;;-142.75;100.00;78574.69;5052985;28;20032;-69
2021/11/24 03:33:05;;;;;;;23.05;15.68;;;;;;;-142.75;100.00;78560.91;5061851;28;20025;-69
2021/11/24 03:35:32;;;;;;;22.33;15.77;;;;;;;-142.75;100.00;78551.06;5054266;28;20025;-68
2021/11/24 03:37:58;;;;;;;23.10;15.83;;;;;;;-142.75;100.00;78555.00;5062468;28;20505;-68
2021/11/24 03:40:29;;;;;;;23.08;15.70;;;;;;;-142.75;100.00;78564.84;5058049;28;20074;-68
2021/11/24 03:42:55;;;;;;;26.10;15.63;;;;;;;-142.75;100.00;78564.84;5063240;28;20108;-68
2021/11/24 03:45:24;;;;;;;26.88;16.52;;;;;;;-142.75;100.00;78570.75;5050708;28;20044;-68
2021/11/24 03:47:50;;;;;;;25.47;17.20;;;;;;;-142.75;100.00;78570.75;5056680;28;20032;-68
2021/11/24 03:50:16;;;;;;;25.80;15.50;;;;;;;-142.75;100.00;78572.72;5059561;28;20040;-70
2021/11/24 03:52:42;;;;;;;25.25;16.30;;;;;;;-142.75;100.00;78570.75;5068476;28;20393;-69
2021/11/24 03:55:10;;;;;;;22.80;15.23;;;;;;;-142.75;100.00;78560.91;5057529;28;20107;-68
2021/11/24 03:57:35;;;;;;;23.83;15.33;;;;;;;-142.75;100.00;78560.91;5068500;28;20036;-68
2021/11/24 04:00:01;;;;;;;22.83;16.83;;;;;;;-142.75;100.00;78555.00;5058794;28;20409;-69
2021/11/24 04:02:26;;;;;;;28.58;16.27;;;;;;;-142.75;100.00;78556.97;5063637;28;20055;-70
2021/11/24 04:04:52;;;;;;;23.75;17.48;;;;;;;-142.75;100.00;78562.88;5058709;28;20025;-68
2021/11/24 04:07:18;;;;;;;24.60;15.63;;;;;;;-142.75;100.00;78570.75;5058862;28;20028;-69
2021/11/24 04:09:43;;;;;;;23.95;16.65;;;;;;;-142.75;100.00;78570.75;5070109;28;20037;-70
2021/11/24 04:12:09;;;;;;;21.60;16.17;;;;;;;-142.75;100.00;78566.81;5064858;28;20104;-68
2021/11/24 04:14:34;;;;;;;24.55;16.25;;;;;;;-142.75;100.00;78566.81;5060170;28;20151;-68
2021/11/24 04:16:59;;;;;;;25.20;15.90;;;;;;;-142.75;100.00;78553.03;5063194;28;20070;-69
2021/11/24 04:19:25;;;;;;;23.65;16.13;;;;;;;-142.75;100.00;78566.81;5064475;28;20787;-68
2021/11/24 04:21:50;;;;;;;23.08;16.65;;;;;;;-142.75;100.00;78562.88;5068699;28;20389;-68
2021/11/24 04:24:18;;;;;;;25.45;15.82;;;;;;;-142.75;100.00;78555.00;5059690;28;20027;-69
2021/11/24 04:26:43;;;;;;;24.37;15.60;;;;;;;-142.75;100.00;78560.91;5061932;28;20393;-69
2021/11/24 04:29:08;;;;;;;28.17;15.95;;;;;;;-142.75;100.00;78553.03;5057356;28;20024;-69
2021/11/24 04:31:34;;;;;;;25.50;16.02;;;;;;;-142.75;100.00;78558.94;5063213;28;20068;-69
2021/11/24 04:33:59;;;;;;;26.90;16.40;;;;;;;-142.75;100.00;78539.25;5052683;28;20059;-69
2021/11/24 04:36:24;;;;;;;29.20;17.27;;;;;;;-142.75;100.00;78556.97;5058284;28;20302;-68
2021/11/24 04:38:49;;;;;;;26.60;18.77;;;;;;;-142.75;100.00;78562.88;5061608;28;20272;-68
2021/11/24 04:41:15;;;;;;;28.25;16.80;;;;;;;-142.75;100.00;78553.03;5058270;28;20279;-69
2021/11/24 04:43:44;;;;;;;25.23;16.60;;;;;;;-142.75;100.00;78547.13;5057965;28;20028;-68
2021/11/24 04:46:10;;;;;;;25.27;17.53;;;;;;;-142.75;100.00;78537.28;5064691;28;20964;-69
2021/11/24 04:48:37;;;;;;;25.83;17.05;;;;;;;-142.75;100.00;78549.09;5064078;28;20028;-68
2021/11/24 04:51:02;;;;;;;27.27;17.30;;;;;;;-142.75;100.00;78555.00;5070057;28;20055;-69
2021/11/24 04:53:28;;;;;;;28.13;18.90;;;;;;;-142.75;100.00;78551.06;5062507;28;20025;-69
2021/11/24 04:55:53;;;;;;;25.27;17.35;;;;;;;-142.75;100.00;78545.16;5058347;28;20478;-68
2021/11/24 04:58:18;;;;;;;28.75;19.02;;;;;;;-142.75;100.00;78549.09;5055990;28;20032;-70
2021/11/24 05:00:44;;;;;;;29.25;19.00;;;;;;;-142.75;100.00;78543.19;5060226;28;20489;-69
2021/11/24 05:03:09;;;;;;;29.60;18.48;;;;;;;-142.75;100.00;78551.06;5066387;28;20028;-69
2021/11/24 05:05:35;;;;;;;27.70;16.33;;;;;;;-142.75;100.00;78555.00;5057046;28;20150;-69
2021/11/24 05:08:02;;;;;;;27.08;16.38;;;;;;;-142.75;100.00;78555.00;5070257;28;20275;-69
2021/11/24 05:10:27;;;;;;;29.60;18.03;;;;;;;-142.75;100.00;78547.13;5063050;28;20482;-69
2021/11/24 05:12:53;;;;;;;30.65;19.58;;;;;;;-142.75;100.00;78545.16;5064809;28;20028;-69
2021/11/24 05:15:30;;;;;;;27.90;17.60;;;;;;;-142.75;100.00;78531.38;5067107;28;20115;-70
2021/11/24 05:18:00;;;;;;;29.50;18.45;;;;;;;-142.75;100.00;78539.25;5063222;28;20078;-70
2021/11/24 05:20:28;;;;;;;28.67;17.70;;;;;;;-142.75;100.00;78535.31;5063973;28;20035;-68
2021/11/24 05:22:54;;;;;;;27.47;18.03;;;;;;;-142.75;100.00;78527.44;5071620;28;20096;-69
2021/11/24 05:25:20;;;;;;;26.77;18.05;;;;;;;-142.75;100.00;78523.50;5067458;28;20601;-69
2021/11/24 05:27:45;;;;;;;32.42;19.02;;;;;;;-142.75;100.00;78521.53;5061528;28;20087;-69
2021/11/24 05:30:11;;;;;;;27.83;18.10;;;;;;;-142.75;100.00;78507.75;5055164;28;20399;-69
2021/11/24 05:32:37;;;;;;;28.98;19.98;;;;;;;-142.75;100.00;78493.97;5064097;28;20493;-69
2021/11/24 05:35:04;;;;;;;30.33;21.53;;;;;;;-142.75;100.00;78493.97;5057024;28;20036;-69
2021/11/24 05:37:29;;;;;;;28.13;18.93;;;;;;;-142.75;100.00;78499.88;5052746;28;20031;-70
2021/11/24 05:39:55;;;;;;;28.20;18.92;;;;;;;-142.75;100.00;78499.88;5059013;28;20021;-69
2021/11/24 05:42:20;;;;;;;32.55;18.67;;;;;;;-142.75;100.00;78499.88;5061277;28;20403;-68
2021/11/24 05:44:48;;;;;;;31.98;19.30;;;;;;;-142.75;100.00;78511.69;5061282;28;20074;-69
2021/11/24 05:47:53;;;;;;;29.83;20.03;;;;;;;-142.75;100.00;78533.34;5058257;28;20199;-69
2021/11/24 05:49:59;;;;;;;32.27;19.13;;;;;;;-142.75;100.00;78541.22;5064506;28;20555;-69
2021/11/24 05:52:25;;;;;;;32.30;21.48;;;;;;;-142.75;100.00;78531.38;5062854;28;20029;-69
2021/11/24 05:54:50;;;;;;;32.15;20.70;;;;;;;-142.75;100.00;78535.31;5066938;28;20024;-69
2021/11/24 05:57:16;;;;;;;31.17;21.42;;;;;;;-142.75;100.00;78543.19;5051305;28;20458;-69
2021/11/24 05:59:41;;;;;;;;;;;;;;;-142.75;100.00;78525.47;5060215;28;20839;-68
2021/11/24 06:02:07;;;;;;;34.67;19.67;;;;;;;-142.75;100.00;78535.31;5074683;28;19912;-69
2021/11/24 06:04:32;;;;;;;30.75;21.35;;;;;;;-142.75;100.00;78539.25;5056779;28;20025;-68
2021/11/24 06:06:57;;;;;;;32.13;20.33;;;;;;;-142.75;100.00;78539.25;5063604;28;20047;-70
2021/11/24 06:09:23;;;;;;;29.60;19.85;;;;;;;-142.75;100.00;78535.31;5065251;28;20059;-69
2021/11/24 06:11:48;;;;;;;27.67;18.60;;;;;;;-142.75;100.00;78531.38;5064262;28;20027;-70
2021/11/24 06:14:13;;;;;;;35.15;22.13;;;;;;;-142.75;100.00;78519.56;5063951;28;20036;-69
2021/11/24 06:16:38;;;;;;;38.20;23.20;;;;;;;-142.75;100.00;78507.75;5065149;28;20391;-69
2021/11/24 06:19:04;;;;;;;35.90;23.13;;;;;;;-142.75;100.00;78513.66;5063540;28;20020;-69
2021/11/24 06:21:29;;;;;;;35.70;23.88;;;;;;;-142.75;100.00;78499.88;5062921;28;20398;-68
2021/11/24 06:23:54;;;;;;;38.30;24.98;;;;;;;-142.75;100.00;78499.88;5060754;28;20116;-69
2021/11/24 06:26:21;;;;;;;39.17;23.48;;;;;;;-142.75;100.00;78497.91;5061396;28;20024;-68
2021/11/24 06:28:47;;;;;;;35.15;22.85;;;;;;;-142.75;100.00;78495.94;5060406;28;20055;-67
2021/11/24 06:31:13;;;;;;;38.33;24.23;;;;;;;-142.75;100.00;78491.97;5056063;28;20025;-68
2021/11/24 06:33:38;;;;;;;36.42;23.95;;;;;;;-142.75;100.00;78499.88;5054374;28;20242;-68
2021/11/24 06:36:04;;;;;;;32.10;22.27;;;;;;;-142.75;100.00;78491.97;5062913;28;20376;-69
2021/11/24 06:38:29;;;;;;;35.83;21.98;;;;;;;-142.75;100.00;78499.88;5054374;28;20501;-69
2021/11/24 06:40:54;;;;;;;31.73;22.42;;;;;;;-142.75;100.00;78488.03;5052863;28;20028;-69
2021/11/24 06:43:20;;;;;;;34.80;22.02;;;;;;;-142.75;100.00;78493.97;5059119;28;20035;-69
2021/11/24 06:45:46;;;;;;;30.92;21.55;;;;;;;-142.75;100.00;78509.72;5060489;28;20524;-68
2021/11/24 06:48:11;;;;;;;34.80;23.00;;;;;;;-142.75;100.00;78505.78;5052117;28;20799;-69
2021/11/24 06:50:36;;;;;;;43.00;22.00;;;;;;;-142.75;100.00;78515.63;5061862;28;20028;-70
2021/11/24 06:53:03;;;;;;;35.90;23.58;;;;;;;-142.75;100.00;78497.91;5060731;28;20021;-69
2021/11/24 06:55:28;;;;;;;35.30;22.60;;;;;;;-142.75;100.00;78521.53;5062939;28;20100;-69
2021/11/24 06:57:54;;;;;;;37.05;23.77;;;;;;;-142.75;100.00;78513.66;5062869;28;20502;-69
2021/11/24 07:00:19;;;;;;;43.00;25.48;;;;;;;-142.75;100.00;78519.56;5059251;28;20486;-71
2021/11/24 07:02:45;;;;;;;43.42;26.63;;;;;;;-142.75;100.00;78521.53;5058939;28;20035;-69
2021/11/24 07:05:11;;;;;;;40.63;24.42;;;;;;;-142.75;100.00;78517.59;5058115;28;20023;-69
2021/11/24 07:07:37;;;;;;;37.80;24.50;;;;;;;-142.75;100.00;78519.56;5063501;28;20054;-69
2021/11/24 07:10:04;;;;;;;37.90;23.50;;;;;;;-142.75;100.00;78525.47;5054400;28;20117;-70
2021/11/24 07:12:30;;;;;;;34.73;23.80;;;;;;;-142.75;100.00;78517.59;5057488;28;20028;-69
2021/11/24 07:14:55;;;;;;;40.15;23.67;;;;;;;-142.75;100.00;78521.53;5055700;28;20524;-68
2021/11/24 07:17:21;;;;;;;40.28;25.17;;;;;;;-142.75;100.00;78519.56;5049442;28;20033;-69
2021/11/24 07:19:47;;;;;;;34.95;23.00;;;;;;;-142.75;100.00;78525.47;5057049;28;20030;-71
2021/11/24 07:22:12;;;;;;;35.95;23.63;;;;;;;-142.75;100.00;78523.50;5056283;28;20025;-68
2021/11/24 07:24:37;;;;;;;41.83;23.38;;;;;;;-142.75;100.00;78527.44;5048301;28;20120;-69
2021/11/24 07:27:03;;;;;;;36.53;24.13;;;;;;;-142.75;100.00;78525.47;5061711;28;20020;-70
2021/11/24 07:29:28;;;;;;;39.08;24.15;;;;;;;-142.75;100.00;78519.56;5047694;28;20024;-68
2021/11/24 07:31:54;;;;;;;37.70;25.55;;;;;;;-142.75;100.00;78525.47;5065177;28;20036;-69
2021/11/24 07:34:19;;;;;;;38.33;24.60;;;;;;;-142.75;100.00;78527.44;5068523;28;20378;-70
2021/11/24 07:36:44;;;;;;;40.50;25.80;;;;;;;-142.75;100.00;78525.47;5068521;28;20506;-69
2021/11/24 07:39:10;;;;;;;40.90;26.30;;;;;;;-142.75;100.00;78523.50;5067994;28;20020;-69
2021/11/24 07:41:35;;;;;;;39.47;25.75;;;;;;;-142.75;100.00;78519.56;5063602;28;20024;-69
2021/11/24 07:44:00;;;;;;;43.08;28.25;;;;;;;-142.75;100.00;78509.72;5046894;28;20478;-69
2021/11/24 07:46:26;;;;;;;52.13;30.33;;;;;;;-142.75;100.00;78515.63;5047697;28;20107;-69
2021/11/24 07:48:51;;;;;;;50.58;30.42;;;;;;;-142.75;100.00;78523.50;5048211;28;20025;-69
2021/11/24 07:51:17;;;;;;;46.95;28.95;;;;;;;-142.75;100.00;78529.41;5047477;28;20033;-68
2021/11/24 07:53:44;;;;;;;47.80;30.80;;;;;;;-142.75;100.00;78539.25;5046924;28;20714;-70
2021/11/24 07:56:10;;;;;;;51.10;30.87;;;;;;;-142.75;100.00;78531.38;5046764;28;20120;-69
2021/11/24 07:58:35;;;;;;;45.45;29.08;;;;;;;-142.75;100.00;78529.41;5047961;28;20111;-68
2021/11/24 08:01:00;;;;;;;45.80;29.95;;;;;;;-142.75;100.00;78535.31;5046041;28;20025;-68
2021/11/24 08:03:25;;;;;;;51.42;33.67;;;;;;;-142.75;100.00;78519.56;5047865;28;20020;-69
2021/11/24 08:05:51;;;;;;;51.73;30.43;;;;;;;-142.75;100.00;78511.69;5046397;28;20053;-69
2021/11/24 08:08:16;;;;;;;43.13;29.35;;;;;;;-142.75;100.00;78501.84;5048277;28;20032;-69
2021/11/24 08:10:41;;;;;;;52.57;29.27;;;;;;;-142.75;100.00;78488.03;5042092;28;20390;-69
2021/11/24 08:13:06;;;;;;;47.73;30.10;;;;;;;-142.75;100.00;78474.25;5047988;28;20267;-69
2021/11/24 08:15:32;;;;;;;42.40;28.77;;;;;;;-142.75;100.00;78472.28;5057597;28;20281;-68
2021/11/24 08:17:57;;;;;;;42.55;28.98;;;;;;;-142.75;100.00;78497.91;5063432;28;20021;-69
2021/11/24 08:20:23;;;;;;;51.08;30.15;;;;;;;-142.75;100.00;78499.88;5060021;28;20020;-71
2021/11/24 08:22:49;;;;;;;46.10;29.48;;;;;;;-142.75;100.00;78493.97;5067945;28;20033;-71
2021/11/24 08:25:14;;;;;;;50.75;28.65;;;;;;;-142.75;100.00;78486.06;5067961;28;20090;-69
2021/11/24 08:27:39;;;;;;;45.78;30.48;;;;;;;-142.75;100.00;78484.09;5061932;28;20052;-69
2021/11/24 08:30:06;;;;;;;44.53;28.23;;;;;;;-142.75;100.00;78493.97;5065676;28;20033;-67
2021/11/24 08:32:32;;;;;;;43.03;27.70;;;;;;;-142.75;100.00;78493.97;5063659;28;20493;-69
2021/11/24 08:34:59;;;;;;;45.08;29.08;;;;;;;-142.75;100.00;78476.22;5053230;28;20059;-69
2021/11/24 08:37:25;;;;;;;44.27;27.87;;;;;;;-142.75;100.00;78466.38;5051431;28;20082;-69
2021/11/24 08:39:50;;;;;;;39.70;27.23;;;;;;;-142.75;100.00;78448.66;5050538;28;20025;-72
2021/11/24 08:42:15;;;;;;;38.55;25.52;;;;;;;-142.75;100.00;78444.72;5063313;28;20075;-70
2021/11/24 08:44:41;;;;;;;35.97;24.83;;;;;;;-142.75;100.00;78423.06;5049636;28;20020;-70
2021/11/24 08:47:06;;;;;;;38.95;24.77;;;;;;;-142.75;100.00;78407.31;5053896;28;20023;-69
2021/11/24 08:49:32;;;;;;;43.90;24.65;;;;;;;-142.75;100.00;78383.66;5053817;28;20057;-69
2021/11/24 08:51:57;;;;;;;40.85;25.17;;;;;;;-142.75;100.00;78399.44;5050489;28;20021;-70
2021/11/24 08:54:22;;;;;;;33.50;23.90;;;;;;;-142.75;100.00;78381.69;5048969;28;20036;-70
2021/11/24 08:56:49;;;;;;;31.15;22.15;;;;;;;-142.75;100.00;78377.75;5060074;28;20021;-69
2021/11/24 08:59:14;;;;;;;31.77;21.97;;;;;;;-142.75;100.00;78363.97;5068991;28;20038;-70
2021/11/24 09:01:40;;;;;;;34.13;21.88;;;;;;;-142.75;100.00;78354.13;5070165;28;20083;-70
2021/11/24 09:04:06;;;;;;;32.67;20.52;;;;;;;-142.75;100.00;78362.00;5062460;28;20033;-69
2021/11/24 09:06:31;;;;;;;;;;;;;;;-142.75;100.00;78352.16;5051508;28;20017;-69
2021/11/24 09:08:57;;;;;;;29.63;19.77;;;;;;;-142.75;100.00;78350.19;5053624;28;19928;-70
2021/11/24 09:11:22;;;;;;;29.50;19.80;;;;;;;-142.75;100.00;78362.00;5049526;28;20081;-71
2021/11/24 09:13:48;;;;;;;29.38;18.85;;;;;;;-142.75;100.00;78348.22;5051892;28;20451;-69
2021/11/24 09:16:14;;;;;;;27.92;18.08;;;;;;;-142.75;100.00;78346.25;5055004;28;20032;-70
2021/11/24 09:18:40;;;;;;;29.83;21.13;;;;;;;-142.75;100.00;78328.53;5048730;28;20044;-69
2021/11/24 09:21:05;;;;;;;26.48;19.13;;;;;;;-142.75;100.00;78342.31;5057040;28;20033;-70
2021/11/24 09:23:31;;;;;;;21.85;15.88;;;;;;;-142.75;100.00;78365.94;5055775;28;20531;-69
2021/11/24 09:26:03;;;;;;;21.48;14.32;;;;;;;-142.75;100.00;78358.06;5053572;28;20032;-69
2021/11/24 09:28:34;;;;;;;21.58;15.13;;;;;;;-142.75;100.00;78369.88;5046476;28;20063;-69
2021/11/24 09:31:01;;;;;;;22.77;15.45;;;;;;;-142.75;100.00;78362.00;5053289;28;20024;-70
2021/11/24 09:33:26;;;;;;;20.17;13.07;;;;;;;-142.75;100.00;78363.97;5069138;28;20028;-70
2021/11/24 09:35:52;;;;;;;16.20;11.93;;;;;;;-142.75;100.00;78354.13;5063551;28;20497;-70
2021/11/24 09:38:19;;;;;;;16.10;11.68;;;;;;;-142.75;100.00;78352.16;5050999;28;20062;-70
2021/11/24 09:40:47;;;;;;;18.47;12.40;;;;;;;-142.75;100.00;78348.22;5063707;28;20036;-70
2021/11/24 09:43:14;;;;;;;16.50;11.77;;;;;;;-142.75;100.00;78332.47;5062270;28;20036;-71
2021/11/24 09:45:43;;;;;;;21.83;13.03;;;;;;;-142.75;100.00;78324.59;5050024;28;20033;-70
2021/11/24 09:48:08;;;;;;;18.83;12.43;;;;;;;-142.75;100.00;78338.38;5051397;28;20017;-69
2021/11/24 09:50:36;;;;;;;20.45;12.38;;;;;;;-142.75;100.00;78346.25;5047069;28;20036;-70
2021/11/24 09:53:02;;;;;;;15.30;10.00;;;;;;;-142.75;100.00;78354.13;5050976;28;20063;-70
2021/11/24 09:55:30;;;;;;;;;;;;;;;-142.75;100.00;78350.19;5059657;28;20759;-69
2021/11/24 10:00:38;;;;;;;11.73;8.17;;;;;;;-142.75;100.00;78330.50;4977082;28;20196;-67
2021/11/24 10:03:04;;;;;;;12.60;8.30;;;;;;;-142.75;100.00;78326.56;5000135;28;20015;-67
2021/11/24 10:05:30;;;;;;;;;;;;;;;-142.75;100.00;78324.59;4978962;28;20049;-67
2021/11/24 10:07:56;;;;;;;10.53;7.67;;;;;;;-142.75;100.00;78314.75;4977362;28;19921;-67
2021/11/24 10:10:22;;;;;;;12.68;7.38;;;;;;;-142.75;100.00;78322.63;4988742;28;20404;-67
2021/11/24 10:12:47;;;;;;;8.70;5.90;;;;;;;-142.75;100.00;78322.63;4990785;28;20030;-67
2021/11/24 10:15:45;;;;;;;9.05;5.53;;;;;;;-142.75;100.00;78308.84;4986885;28;20511;-67
2021/11/24 10:18:29;;;;;;;12.88;8.55;;;;;;;-142.75;100.00;78304.91;4990736;28;20014;-67
2021/11/24 10:20:55;;;;;;;15.37;9.03;;;;;;;-142.75;100.00;78291.09;4990809;28;20400;-66
2021/11/24 10:23:30;;;;;;;22.20;15.00;;;;;;;-142.75;100.00;78271.41;4989900;28;20122;-67
2021/11/24 10:26:32;;;;;;;20.48;13.27;;;;;;;-142.75;100.00;78267.47;4990670;28;20026;-67
2021/11/24 10:29:14;;;;;;;21.48;14.85;;;;;;;-142.75;100.00;78259.59;4988383;28;20743;-67
2021/11/24 10:31:43;;;;;;;23.30;14.82;;;;;;;-142.75;100.00;78239.91;4988061;28;20311;-67
2021/11/24 10:34:20;;;;;;;18.55;12.57;;;;;;;-142.75;100.00;78235.97;5001716;28;21001;-66
2021/11/24 10:36:53;;;;;;;16.30;11.82;;;;;;;-142.75;100.00;78247.78;5008262;28;20037;-66
2021/11/24 10:39:20;;;;;;;15.65;10.98;;;;;;;-142.75;100.00;78237.94;5005338;28;20027;-67
2021/11/24 10:41:46;;;;;;;14.65;11.13;;;;;;;-142.75;100.00;78243.84;4988157;28;20027;-66
2021/11/24 10:44:24;;;;;;;16.05;12.38;;;;;;;-142.75;100.00;78235.97;5007528;28;20398;-66
2021/11/24 10:46:53;;;;;;;13.95;9.63;;;;;;;-142.75;100.00;78259.59;5000545;28;20089;-66
2021/11/24 10:49:18;;;;;;;16.73;10.50;;;;;;;-142.75;100.00;78239.91;4992028;28;20549;-65
2021/11/24 10:51:44;;;;;;;14.73;10.27;;;;;;;-142.75;100.00;78228.09;4995314;28;20022;-66
2021/11/24 10:54:17;;;;;;;16.33;10.25;;;;;;;-142.75;100.00;78228.09;5007321;28;20322;-66
2021/11/24 10:57:07;;;;;;;15.50;8.13;;;;;;;-142.75;100.00;78237.94;5007367;28;20403;-67